SHT21A EGLL-EGJB
Flight info
| Callsign | SHT21A |
|---|---|
| Flight time | N/A |
| Altitude | 20000 |
| Route | GASGU N866 SAM N63 LELNA |
| Aircraft | A319/M-SDE3FGHIRWY/LB1 |
Departure
| Time | N/A |
|---|---|
| Airport | London Heathrow Airport (EGLL) |
Arrival
| Time | 2026-04-22 20:21 |
|---|---|
| Airport | Guernsey Airport (EGJB) |
| Time | Latitude | Longitude | Altitude | Speed | Heading |
|---|---|---|---|---|---|
| 2026-04-22 20:05 | 50.26706 | -1.88758 | 20260 ft | 371 kts | 206° |
| 2026-04-22 20:05 | 50.24422 | -1.90529 | 20257 ft | 370 kts | 206° |
| 2026-04-22 20:05 | 50.22121 | -1.92309 | 20256 ft | 370 kts | 206° |
| 2026-04-22 20:05 | 50.19814 | -1.94093 | 20256 ft | 370 kts | 206° |
| 2026-04-22 20:06 | 50.17513 | -1.95870 | 20257 ft | 370 kts | 206° |
| 2026-04-22 20:06 | 50.15197 | -1.97656 | 20255 ft | 370 kts | 206° |
| 2026-04-22 20:06 | 50.12906 | -1.99423 | 20250 ft | 369 kts | 206° |
| 2026-04-22 20:06 | 50.10597 | -2.01200 | 20073 ft | 369 kts | 206° |
| 2026-04-22 20:07 | 50.08333 | -2.02941 | 19784 ft | 367 kts | 206° |
| 2026-04-22 20:07 | 50.06034 | -2.04706 | 19405 ft | 365 kts | 206° |
| 2026-04-22 20:07 | 50.03785 | -2.06431 | 18999 ft | 364 kts | 206° |
| 2026-04-22 20:07 | 50.01534 | -2.08156 | 18579 ft | 363 kts | 206° |
| 2026-04-22 20:08 | 49.99295 | -2.10037 | 18130 ft | 364 kts | 212° |
| 2026-04-22 20:08 | 49.97313 | -2.12405 | 17697 ft | 364 kts | 223° |
| 2026-04-22 20:08 | 49.95570 | -2.15218 | 17274 ft | 363 kts | 228° |
| 2026-04-22 20:08 | 49.93899 | -2.18159 | 16852 ft | 362 kts | 229° |
| 2026-04-22 20:09 | 49.92265 | -2.21067 | 16440 ft | 361 kts | 229° |
| 2026-04-22 20:09 | 49.90608 | -2.24001 | 16014 ft | 360 kts | 229° |
| 2026-04-22 20:09 | 49.89020 | -2.26795 | 15619 ft | 358 kts | 228° |
| 2026-04-22 20:09 | 49.87389 | -2.29651 | 15206 ft | 357 kts | 228° |
| 2026-04-22 20:10 | 49.85754 | -2.32501 | 14791 ft | 355 kts | 228° |
| 2026-04-22 20:10 | 49.84115 | -2.35355 | 14371 ft | 353 kts | 228° |
| 2026-04-22 20:10 | 49.82486 | -2.38186 | 13955 ft | 352 kts | 228° |
| 2026-04-22 20:10 | 49.80882 | -2.40970 | 13549 ft | 350 kts | 228° |
| 2026-04-22 20:11 | 49.79263 | -2.43777 | 13128 ft | 348 kts | 228° |
| 2026-04-22 20:11 | 49.77661 | -2.46553 | 12715 ft | 347 kts | 228° |
| 2026-04-22 20:11 | 49.76060 | -2.49320 | 12289 ft | 345 kts | 227° |
| 2026-04-22 20:11 | 49.74480 | -2.52050 | 11865 ft | 344 kts | 227° |
| 2026-04-22 20:12 | 49.72883 | -2.54805 | 11450 ft | 342 kts | 227° |
| 2026-04-22 20:12 | 49.71301 | -2.57485 | 11037 ft | 340 kts | 224° |
| 2026-04-22 20:12 | 49.69501 | -2.59822 | 10609 ft | 338 kts | 213° |
| 2026-04-22 20:12 | 49.67525 | -2.61677 | 10335 ft | 330 kts | 209° |
| 2026-04-22 20:13 | 49.65645 | -2.63601 | 10156 ft | 322 kts | 215° |
| 2026-04-22 20:13 | 49.63874 | -2.65605 | 9983 ft | 313 kts | 214° |
| 2026-04-22 20:13 | 49.62027 | -2.67326 | 9759 ft | 305 kts | 205° |
| 2026-04-22 20:13 | 49.60166 | -2.68780 | 9459 ft | 294 kts | 207° |
| 2026-04-22 20:14 | 49.58517 | -2.70562 | 9135 ft | 292 kts | 217° |
| 2026-04-22 20:14 | 49.56991 | -2.72597 | 8780 ft | 290 kts | 219° |
| 2026-04-22 20:14 | 49.55499 | -2.74677 | 8422 ft | 289 kts | 220° |
| 2026-04-22 20:14 | 49.54026 | -2.76749 | 8045 ft | 289 kts | 220° |
| 2026-04-22 20:15 | 49.52544 | -2.78839 | 7632 ft | 288 kts | 220° |
| 2026-04-22 20:15 | 49.51198 | -2.81047 | 7133 ft | 283 kts | 228° |
| 2026-04-22 20:15 | 49.50001 | -2.83364 | 6614 ft | 277 kts | 230° |
| 2026-04-22 20:15 | 49.48820 | -2.85733 | 5863 ft | 280 kts | 229° |
| 2026-04-22 20:16 | 49.47486 | -2.87816 | 5142 ft | 273 kts | 207° |
| 2026-04-22 20:16 | 49.45760 | -2.88664 | 4495 ft | 257 kts | 173° |
| 2026-04-22 20:16 | 49.44162 | -2.87855 | 3860 ft | 241 kts | 138° |
| 2026-04-22 20:16 | 49.43264 | -2.85874 | 3233 ft | 220 kts | 111° |
| 2026-04-22 20:17 | 49.42856 | -2.83696 | 2564 ft | 209 kts | 102° |
| 2026-04-22 20:17 | 49.42666 | -2.81548 | 2112 ft | 200 kts | 95° |
| 2026-04-22 20:17 | 49.42671 | -2.79490 | 1987 ft | 182 kts | 88° |
| 2026-04-22 20:17 | 49.42821 | -2.77689 | 2003 ft | 160 kts | 85° |
| 2026-04-22 20:18 | 49.42962 | -2.76102 | 2009 ft | 145 kts | 86° |
| 2026-04-22 20:18 | 49.43088 | -2.74535 | 1996 ft | 146 kts | 88° |
| 2026-04-22 20:18 | 49.43156 | -2.73034 | 1815 ft | 138 kts | 90° |
| 2026-04-22 20:18 | 49.43194 | -2.71586 | 1625 ft | 137 kts | 90° |
| 2026-04-22 20:19 | 49.43229 | -2.70169 | 1441 ft | 125 kts | 90° |
| 2026-04-22 20:19 | 49.43261 | -2.68899 | 1255 ft | 115 kts | 89° |
| 2026-04-22 20:19 | 49.43293 | -2.67687 | 1117 ft | 115 kts | 89° |
| 2026-04-22 20:19 | 49.43324 | -2.66458 | 982 ft | 115 kts | 88° |
| 2026-04-22 20:20 | 49.43359 | -2.65226 | 843 ft | 115 kts | 87° |
| 2026-04-22 20:20 | 49.43394 | -2.63997 | 683 ft | 117 kts | 87° |
| 2026-04-22 20:20 | 49.43429 | -2.62715 | 498 ft | 121 kts | 86° |
| 2026-04-22 20:20 | 49.43462 | -2.61457 | 347 ft | 117 kts | 86° |
| 2026-04-22 20:21 | 49.43493 | -2.60339 | 321 ft | 72 kts | 87° |
| 2026-04-22 20:21 | 49.43505 | -2.59891 | 332 ft | 31 kts | 86° |
| 2026-04-22 20:21 | 49.43513 | -2.59586 | 337 ft | 26 kts | 87° |
| 2026-04-22 20:21 | 49.43521 | -2.59316 | 339 ft | 24 kts | 88° |
| 2026-04-22 20:22 | 49.43490 | -2.59204 | 339 ft | 7 kts | 175° |
| 2026-04-22 20:22 | 49.43433 | -2.59196 | 340 ft | 8 kts | 175° |
| 2026-04-22 20:22 | 49.43392 | -2.59207 | 340 ft | 5 kts | 212° |
| 2026-04-22 20:22 | 49.43370 | -2.59276 | 339 ft | 10 kts | 269° |
| 2026-04-22 20:23 | 49.43368 | -2.59413 | 339 ft | 14 kts | 266° |
| 2026-04-22 20:23 | 49.43364 | -2.59575 | 337 ft | 16 kts | 267° |
| 2026-04-22 20:23 | 49.43341 | -2.59689 | 335 ft | 6 kts | 192° |
| 2026-04-22 20:23 | 49.43288 | -2.59687 | 335 ft | 8 kts | 178° |
| 2026-04-22 20:24 | 49.43258 | -2.59686 | 336 ft | 0 kts | 178° |